Time;durP1;ratioP1;P1;durP2;ratioP2;P2;SDS_P1;SDS_P2;PMS_P1;PMS_P2;Temp;Humidity;BMP_temperature;BMP_pressure;BME280_temperature;BME280_humidity;BME280_pressure;Samples;Min_cycle;Max_cycle;Signal;HPM_P1;HPM_P2
2023/01/05 00:01:01;;;;;;;25.08;16.33;;;;;;;8.33;nan;95878.50;4981788;28;20639;-70
2023/01/05 00:03:28;;;;;;;25.25;16.25;;;;;;;8.32;nan;95883.56;4981727;28;20271;-70
2023/01/05 00:05:59;;;;;;;20.67;14.30;;;;;;;8.21;nan;95883.69;4983775;28;20270;-69
2023/01/05 00:08:25;;;;;;;24.15;16.10;;;;;;;8.28;nan;95887.00;4983348;28;20204;-69
2023/01/05 00:24:45;;;;;;;21.98;14.00;;;;;;;8.67;nan;95856.09;4981194;28;20626;-73
2023/01/05 00:27:12;;;;;;;22.30;14.45;;;;;;;8.69;nan;95862.00;4982582;28;20219;-70
2023/01/05 00:29:40;;;;;;;21.10;14.85;;;;;;;8.71;nan;95855.22;4981912;28;20718;-71
2023/01/05 00:32:07;;;;;;;19.63;14.23;;;;;;;8.69;nan;95851.84;4982196;28;20796;-70
2023/01/05 00:34:34;;;;;;;20.30;13.60;;;;;;;8.64;nan;95848.56;4982489;28;20216;-73
2023/01/05 00:37:00;;;;;;;28.02;13.15;;;;;;;8.63;nan;95851.97;4982665;28;20791;-70
2023/01/05 00:39:27;;;;;;;18.30;11.85;;;;;;;8.55;nan;95846.16;4981181;28;20692;-71
2023/01/05 00:41:54;;;;;;;20.75;13.65;;;;;;;8.58;nan;95841.06;4981148;28;20212;-70
2023/01/05 00:44:20;;;;;;;22.67;14.13;;;;;;;8.63;nan;95836.75;4981577;28;20224;-68
2023/01/05 00:46:49;;;;;;;22.02;15.13;;;;;;;8.62;nan;95844.38;4981175;28;20710;-68
2023/01/05 00:49:15;;;;;;;19.77;14.00;;;;;;;8.61;nan;95838.47;4981944;28;20209;-69
2023/01/05 00:51:42;;;;;;;20.08;13.30;;;;;;;8.55;nan;95833.50;4981689;28;20239;-69
2023/01/05 00:54:09;;;;;;;21.67;13.88;;;;;;;8.64;nan;95846.03;4981636;28;20700;-70
2023/01/05 00:56:35;;;;;;;24.23;14.48;;;;;;;8.67;nan;95850.19;4980586;28;20655;-71
2023/01/05 00:59:02;;;;;;;20.95;15.00;;;;;;;8.62;nan;95849.44;4980939;28;20204;-70
2023/01/05 01:01:29;;;;;;;25.85;14.98;;;;;;;8.59;nan;95844.41;4981931;28;20212;-69
2023/01/05 01:03:58;;;;;;;20.15;13.88;;;;;;;8.43;nan;95846.28;4979899;28;20217;-71
2023/01/05 01:06:25;;;;;;;25.58;14.77;;;;;;;8.40;nan;95853.97;4981634;28;20234;-70
2023/01/05 01:08:52;;;;;;;19.92;15.15;;;;;;;8.44;nan;95853.03;4980772;28;20208;-69
2023/01/05 01:11:19;;;;;;;24.70;14.35;;;;;;;8.37;nan;95852.31;4981657;28;20274;-70
2023/01/05 01:13:45;;;;;;;22.38;14.55;;;;;;;8.38;nan;95853.13;4979501;28;20299;-70
2023/01/05 01:16:14;;;;;;;24.05;15.40;;;;;;;8.38;nan;95848.91;4980906;28;20201;-70
2023/01/05 01:18:42;;;;;;;20.95;14.25;;;;;;;8.53;nan;95851.25;4980174;28;20238;-70
2023/01/05 01:21:10;;;;;;;19.27;14.32;;;;;;;8.47;nan;95828.50;4982061;28;20266;-70
2023/01/05 01:23:37;;;;;;;20.80;14.05;;;;;;;8.62;nan;95837.63;4981359;28;20243;-71
2023/01/05 01:26:04;;;;;;;22.05;14.40;;;;;;;8.65;nan;95832.50;4981561;28;20261;-70
2023/01/05 01:28:31;;;;;;;24.30;14.60;;;;;;;8.66;nan;95831.63;4981318;28;20380;-70
2023/01/05 01:30:58;;;;;;;22.75;15.27;;;;;;;8.74;nan;95822.22;4981364;28;20209;-71
2023/01/05 01:33:25;;;;;;;19.38;13.70;;;;;;;8.70;nan;95823.13;4980057;28;20219;-69
2023/01/05 01:35:52;;;;;;;17.73;13.23;;;;;;;8.65;nan;95812.25;4980634;28;20651;-69
2023/01/05 01:38:20;;;;;;;20.35;13.68;;;;;;;8.68;nan;95813.88;4983367;28;20212;-69
2023/01/05 01:40:48;;;;;;;18.65;14.10;;;;;;;8.55;nan;95787.88;4983611;28;20216;-70
2023/01/05 01:43:15;;;;;;;23.45;14.30;;;;;;;8.70;nan;95802.84;4982087;28;20289;-70
2023/01/05 01:45:43;;;;;;;17.08;13.48;;;;;;;8.78;nan;95796.00;4981545;28;20590;-71
2023/01/05 01:48:12;;;;;;;18.98;13.60;;;;;;;8.77;nan;95785.88;4982423;28;20610;-69
2023/01/05 01:50:43;;;;;;;20.38;13.95;;;;;;;8.78;nan;95790.91;4978653;28;20682;-70
2023/01/05 01:53:18;;;;;;;16.80;12.73;;;;;;;8.85;nan;95782.38;4979141;28;20291;-70
2023/01/05 01:55:47;;;;;;;19.33;13.98;;;;;;;8.88;nan;95780.66;4979798;28;20258;-70
2023/01/05 01:58:17;;;;;;;21.02;14.68;;;;;;;8.91;nan;95776.34;4981007;28;20215;-72
2023/01/05 02:00:45;;;;;;;18.23;13.55;;;;;;;8.77;nan;95778.28;4980773;28;20205;-70
2023/01/05 02:03:12;;;;;;;19.42;13.60;;;;;;;8.82;nan;95771.44;4980745;28;20204;-72
2023/01/05 02:05:39;;;;;;;17.73;12.82;;;;;;;8.86;nan;95768.84;4983321;28;20228;-71
2023/01/05 02:08:11;;;;;;;20.70;14.93;;;;;;;8.80;nan;95752.88;4984230;28;20603;-69
2023/01/05 02:11:02;;;;;;;20.83;13.52;;;;;;;8.81;nan;95760.47;4984145;28;20290;-70
2023/01/05 02:13:43;;;;;;;19.65;12.88;;;;;;;8.81;nan;95754.56;4984153;28;20240;-70
2023/01/05 02:16:21;;;;;;;16.60;12.82;;;;;;;8.93;nan;95753.50;4984081;28;20704;-70
2023/01/05 02:19:13;;;;;;;21.92;14.82;;;;;;;8.77;nan;95752.94;4983877;28;20716;-70
2023/01/05 02:21:55;;;;;;;22.08;13.38;;;;;;;8.70;nan;95747.09;4984106;28;20243;-70
2023/01/05 02:24:56;;;;;;;24.50;14.90;;;;;;;8.66;nan;95748.00;4983241;28;20212;-70
2023/01/05 02:27:39;;;;;;;24.30;15.32;;;;;;;8.77;nan;95746.16;4983466;28;20268;-70
2023/01/05 02:30:59;;;;;;;19.70;14.07;;;;;;;8.72;nan;95742.03;4983815;28;20212;-70
2023/01/05 02:33:40;;;;;;;19.52;12.50;;;;;;;8.71;nan;95753.84;4984034;28;20239;-70
2023/01/05 02:36:17;;;;;;;24.42;14.93;;;;;;;8.68;nan;95753.91;4983446;28;20220;-70
2023/01/05 02:38:51;;;;;;;24.52;15.40;;;;;;;8.70;nan;95752.19;4984206;28;20200;-71
2023/01/05 02:41:25;;;;;;;20.52;13.88;;;;;;;8.82;nan;95751.16;4984083;28;20724;-70
2023/01/05 02:43:52;;;;;;;21.45;13.95;;;;;;;8.72;nan;95747.94;4982923;28;20212;-70
2023/01/05 02:46:19;;;;;;;24.50;16.52;;;;;;;8.66;nan;95739.59;4984411;28;20236;-72
2023/01/05 02:48:49;;;;;;;23.88;14.52;;;;;;;8.63;nan;95729.50;4983182;28;20212;-71
2023/01/05 02:51:21;;;;;;;20.67;14.80;;;;;;;8.58;nan;95727.03;4983722;28;21808;-72
2023/01/05 02:53:53;;;;;;;23.38;15.63;;;;;;;8.58;nan;95726.22;4981817;28;20208;-71
2023/01/05 02:56:25;;;;;;;20.85;14.50;;;;;;;8.58;nan;95728.75;4982913;28;20220;-71
2023/01/05 02:58:54;;;;;;;22.65;13.75;;;;;;;8.49;nan;95725.47;4982808;28;20217;-70
2023/01/05 03:01:26;;;;;;;26.75;15.35;;;;;;;8.48;nan;95730.56;4983678;28;20585;-70
2023/01/05 03:04:00;;;;;;;20.75;13.82;;;;;;;8.56;nan;95723.69;4983463;28;20213;-71
2023/01/05 03:06:33;;;;;;;23.73;14.55;;;;;;;8.63;nan;95720.22;4983330;28;20235;-72
2023/01/05 03:09:02;;;;;;;23.45;15.15;;;;;;;8.57;nan;95712.69;4983060;28;20389;-70
2023/01/05 03:14:28;;;;;;;27.60;16.75;;;;;;;8.29;nan;95674.25;4982450;28;20921;-69
2023/01/05 03:16:57;;;;;;;26.35;16.98;;;;;;;8.33;nan;95693.66;4981674;28;20736;-69
2023/01/05 03:19:39;;;;;;;28.13;16.20;;;;;;;8.37;nan;95682.63;4982233;28;20205;-70
2023/01/05 03:36:13;;;;;;;26.50;15.88;;;;;;;7.87;nan;95668.13;4978418;28;20235;-70
2023/01/05 03:38:44;;;;;;;26.45;15.75;;;;;;;7.91;nan;95669.75;4983022;28;20672;-70
2023/01/05 03:41:13;;;;;;;24.63;17.00;;;;;;;7.94;nan;95666.31;4983901;28;20348;-71
2023/01/05 03:43:42;;;;;;;23.73;15.70;;;;;;;7.58;nan;95628.00;4980101;28;20208;-70
2023/01/05 03:46:12;;;;;;;23.10;15.95;;;;;;;7.79;nan;95678.31;4979287;28;20228;-69
2023/01/05 03:48:38;;;;;;;27.55;15.82;;;;;;;7.74;nan;95671.66;4972330;28;20541;-71
2023/01/05 03:51:06;;;;;;;24.88;16.33;;;;;;;7.68;nan;95674.25;4978924;28;20212;-71
2023/01/05 03:53:34;;;;;;;23.63;15.50;;;;;;;7.56;nan;95674.41;4978525;28;20204;-72
2023/01/05 03:56:01;;;;;;;24.83;16.33;;;;;;;7.49;nan;95677.00;4978352;28;20216;-70
2023/01/05 03:58:28;;;;;;;27.77;15.75;;;;;;;7.44;nan;95681.28;4981139;28;20215;-70
2023/01/05 04:00:54;;;;;;;24.70;15.73;;;;;;;7.39;nan;95685.56;4979645;28;20271;-70
2023/01/05 04:03:21;;;;;;;23.35;15.45;;;;;;;7.47;nan;95675.34;4980414;28;20231;-70
2023/01/05 04:05:48;;;;;;;26.25;16.52;;;;;;;7.54;nan;95666.84;4979124;28;20216;-70
2023/01/05 04:08:15;;;;;;;25.52;16.33;;;;;;;7.53;nan;95662.63;4979824;28;20196;-69
2023/01/05 04:10:43;;;;;;;24.67;16.58;;;;;;;7.60;nan;95663.41;4980329;28;20211;-69
2023/01/05 04:13:10;;;;;;;24.45;16.15;;;;;;;7.43;nan;95664.44;4981066;28;20248;-69
2023/01/05 04:15:37;;;;;;;25.70;15.27;;;;;;;7.28;nan;95654.50;4982031;28;20275;-69
2023/01/05 04:18:03;;;;;;;24.77;15.65;;;;;;;7.24;nan;95657.91;4981560;28;20209;-69
2023/01/05 04:20:30;;;;;;;32.88;17.17;;;;;;;7.13;nan;95664.78;4981033;28;20593;-70
2023/01/05 04:22:57;;;;;;;30.75;19.08;;;;;;;7.11;nan;95656.38;4981153;28;20693;-70
2023/01/05 04:25:24;;;;;;;25.77;16.90;;;;;;;7.04;nan;95645.50;4980781;28;20525;-69
2023/01/05 04:27:52;;;;;;;27.77;17.13;;;;;;;6.99;nan;95648.91;4980799;28;20228;-69
2023/01/05 04:30:20;;;;;;;26.70;17.38;;;;;;;6.79;nan;95647.44;4978951;28;20204;-69
2023/01/05 04:32:47;;;;;;;28.58;17.80;;;;;;;6.80;nan;95641.53;4980025;28;20203;-69
2023/01/05 04:35:13;;;;;;;28.73;16.73;;;;;;;6.74;nan;95651.69;4980268;28;20630;-69
2023/01/05 04:37:40;;;;;;;30.83;17.45;;;;;;;6.69;nan;95650.88;4981737;28;20270;-69
2023/01/05 04:40:08;;;;;;;30.83;18.17;;;;;;;6.78;nan;95658.38;4981043;28;20773;-69
2023/01/05 04:42:34;;;;;;;26.05;17.67;;;;;;;6.75;nan;95658.41;4980636;28;20682;-69
2023/01/05 04:45:03;;;;;;;30.77;17.73;;;;;;;6.49;nan;95624.97;4981741;28;20259;-69
2023/01/05 04:47:29;;;;;;;30.15;17.40;;;;;;;6.59;nan;95656.88;4981640;28;20212;-69
2023/01/05 04:49:56;;;;;;;31.13;18.20;;;;;;;6.58;nan;95655.22;4982020;28;20599;-69
2023/01/05 04:52:23;;;;;;;36.67;19.10;;;;;;;6.57;nan;95656.06;4982995;28;20215;-69
2023/01/05 04:54:49;;;;;;;33.33;20.95;;;;;;;6.53;nan;95656.94;4981472;28;20283;-69
2023/01/05 04:57:16;;;;;;;37.63;20.70;;;;;;;6.51;nan;95658.63;4981992;28;20204;-69
2023/01/05 04:59:43;;;;;;;33.72;20.15;;;;;;;6.52;nan;95665.38;4981179;28;20218;-69
2023/01/05 05:02:12;;;;;;;31.08;18.95;;;;;;;6.52;nan;95657.78;4981768;28;20221;-69
2023/01/05 05:04:39;;;;;;;30.40;20.10;;;;;;;6.50;nan;95664.53;4982370;28;20214;-69
2023/01/05 05:07:05;;;;;;;42.95;23.45;;;;;;;6.43;nan;95667.97;4982902;28;20224;-70
2023/01/05 05:09:32;;;;;;;40.95;24.27;;;;;;;6.50;nan;95682.22;4985233;28;20232;-69
2023/01/05 05:11:59;;;;;;;77.00;39.72;;;;;;;6.53;nan;95671.25;4985707;28;20239;-69
2023/01/05 05:14:26;;;;;;;44.60;24.73;;;;;;;6.58;nan;95680.47;4987144;28;20628;-70
2023/01/05 05:16:52;;;;;;;38.45;23.20;;;;;;;6.62;nan;95681.28;4985591;28;20212;-70
2023/01/05 05:19:20;;;;;;;37.67;21.92;;;;;;;6.70;nan;95674.47;4985127;28;20208;-68
2023/01/05 05:21:47;;;;;;;35.55;21.13;;;;;;;6.74;nan;95674.44;4984989;28;20705;-69
2023/01/05 05:24:14;;;;;;;36.17;20.00;;;;;;;6.81;nan;95671.00;4986243;28;20212;-70
2023/01/05 05:26:41;;;;;;;36.60;20.23;;;;;;;6.81;nan;95667.63;4985285;28;20234;-70
2023/01/05 05:29:08;;;;;;;43.25;21.77;;;;;;;6.64;nan;95654.34;4984809;28;20204;-69
2023/01/05 05:31:35;;;;;;;53.65;29.33;;;;;;;6.72;nan;95660.13;4984688;28;21641;-68
2023/01/05 05:34:02;;;;;;;58.85;29.63;;;;;;;6.70;nan;95655.09;4985035;28;20217;-69
2023/01/05 05:36:30;;;;;;;48.72;26.38;;;;;;;6.70;nan;95660.13;4985085;28;20258;-69
2023/01/05 05:38:57;;;;;;;47.47;24.90;;;;;;;6.60;nan;95643.41;4984945;28;20287;-69
2023/01/05 05:41:24;;;;;;;47.75;26.35;;;;;;;6.57;nan;95655.22;4986200;28;20263;-69
2023/01/05 05:43:51;;;;;;;49.72;27.42;;;;;;;6.63;nan;95643.41;4985637;28;20220;-69
2023/01/05 05:46:17;;;;;;;44.90;27.90;;;;;;;6.50;nan;95641.81;4983599;28;20711;-70
2023/01/05 05:48:44;;;;;;;47.25;27.42;;;;;;;6.48;nan;95628.34;4985393;28;20212;-70
2023/01/05 05:51:11;;;;;;;59.17;32.10;;;;;;;6.50;nan;95634.22;4984478;28;20910;-70
2023/01/05 05:53:39;;;;;;;59.63;33.47;;;;;;;6.80;nan;95626.38;4984450;28;20208;-69
2023/01/05 05:56:06;;;;;;;69.28;37.22;;;;;;;6.76;nan;95634.84;4985216;28;20686;-70
2023/01/05 05:58:32;;;;;;;99.28;50.22;;;;;;;6.54;nan;95628.31;4985970;28;20287;-70
2023/01/05 06:00:59;;;;;;;94.22;46.40;;;;;;;6.58;nan;95635.00;4984705;28;20408;-70
2023/01/05 06:03:26;;;;;;;93.50;51.08;;;;;;;6.50;nan;95629.19;4984882;28;20197;-70
2023/01/05 06:05:53;;;;;;;94.88;48.22;;;;;;;6.52;nan;95609.81;4984496;28;20216;-69
2023/01/05 06:08:20;;;;;;;97.38;49.28;;;;;;;6.65;nan;95611.38;4984584;28;20236;-69
2023/01/05 06:10:50;;;;;;;89.50;49.03;;;;;;;6.79;nan;95612.06;4984199;28;20240;-70
2023/01/05 06:13:17;;;;;;;109.65;52.92;;;;;;;6.75;nan;95618.00;4983026;28;20249;-69
2023/01/05 06:15:44;;;;;;;102.75;52.70;;;;;;;6.55;nan;95609.78;4984094;28;20215;-70
2023/01/05 06:18:10;;;;;;;107.00;52.45;;;;;;;6.58;nan;95608.91;4984672;28;20200;-70
2023/01/05 06:20:37;;;;;;;97.43;48.50;;;;;;;6.63;nan;95604.69;4983348;28;20579;-72
2023/01/05 06:23:04;;;;;;;93.97;49.70;;;;;;;6.56;nan;95613.16;4983994;28;20267;-70
2023/01/05 06:25:31;;;;;;;99.80;52.13;;;;;;;6.56;nan;95603.88;4983683;28;20728;-72
2023/01/05 06:27:59;;;;;;;90.45;47.10;;;;;;;6.70;nan;95609.63;4984449;28;20690;-69
2023/01/05 06:30:27;;;;;;;101.10;49.15;;;;;;;6.78;nan;95617.97;4983750;28;20212;-69
2023/01/05 06:32:54;;;;;;;106.70;50.45;;;;;;;6.64;nan;95594.56;4983935;28;21519;-70
2023/01/05 06:35:21;;;;;;;86.15;49.78;;;;;;;6.91;nan;95607.75;4983248;28;20205;-70
2023/01/05 06:37:48;;;;;;;103.43;54.05;;;;;;;7.11;nan;95611.72;4984245;28;20591;-69
2023/01/05 06:40:15;;;;;;;115.90;57.15;;;;;;;7.12;nan;95597.41;4984135;28;20220;-69
2023/01/05 06:42:42;;;;;;;104.30;51.35;;;;;;;7.34;nan;95608.94;4983673;28;20212;-69
2023/01/05 06:45:13;;;;;;;95.55;48.08;;;;;;;7.32;nan;95595.47;4983225;28;20879;-69
2023/01/05 06:47:40;;;;;;;89.30;47.47;;;;;;;7.39;nan;95583.59;4983801;28;20622;-69
2023/01/05 06:50:08;;;;;;;95.43;46.92;;;;;;;7.48;nan;95579.22;4983748;28;20244;-70
2023/01/05 06:52:38;;;;;;;96.30;50.13;;;;;;;7.74;nan;95604.19;4983621;28;20205;-70
2023/01/05 06:55:06;;;;;;;89.75;49.33;;;;;;;7.79;nan;95606.66;4983180;28;20284;-70
2023/01/05 06:57:33;;;;;;;104.20;55.00;;;;;;;7.85;nan;95606.56;4983851;28;20212;-69
2023/01/05 06:59:59;;;;;;;100.65;53.33;;;;;;;7.97;nan;95601.31;4983238;28;20204;-70
2023/01/05 07:02:28;;;;;;;106.88;56.42;;;;;;;8.08;nan;95596.09;4983554;28;20219;-69
2023/01/05 07:04:54;;;;;;;96.70;53.08;;;;;;;8.13;nan;95599.41;4983141;28;20205;-70
2023/01/05 07:07:21;;;;;;;99.95;54.25;;;;;;;8.16;nan;95591.75;4983078;28;20294;-69
2023/01/05 07:09:49;;;;;;;89.93;46.60;;;;;;;8.26;nan;95597.50;4983376;28;20208;-69
2023/01/05 07:12:15;;;;;;;81.07;43.50;;;;;;;8.47;nan;95594.63;4982765;28;20323;-71
2023/01/05 07:14:42;;;;;;;75.35;42.38;;;;;;;8.69;nan;95603.53;4983637;28;20212;-71
2023/01/05 07:17:11;;;;;;;71.63;40.17;;;;;;;9.25;nan;95600.81;4983619;28;20203;-70
2023/01/05 07:19:39;;;;;;;72.78;39.95;;;;;;;10.10;nan;95602.34;4983085;28;20213;-71
2023/01/05 07:22:06;;;;;;;75.88;43.50;;;;;;;11.59;nan;95592.56;4982891;28;20648;-70
2023/01/05 07:24:33;;;;;;;73.47;42.00;;;;;;;13.66;nan;95589.97;4983101;28;20893;-69
2023/01/05 07:27:00;;;;;;;66.70;41.17;;;;;;;15.49;nan;95584.19;4983370;28;20351;-70
2023/01/05 07:29:28;;;;;;;68.32;37.85;;;;;;;16.83;nan;95556.53;4982461;28;20570;-70
2023/01/05 07:31:55;;;;;;;66.93;39.97;;;;;;;16.93;nan;95562.88;4982701;28;21148;-70
2023/01/05 07:34:22;;;;;;;69.80;37.80;;;;;;;16.54;nan;95565.66;4982578;28;20216;-70
2023/01/05 07:36:51;;;;;;;63.92;38.78;;;;;;;16.34;nan;95559.72;4983250;28;20201;-70
2023/01/05 07:39:18;;;;;;;68.95;39.88;;;;;;;15.78;nan;95556.47;4983250;28;20217;-70
2023/01/05 07:41:45;;;;;;;67.53;37.35;;;;;;;15.14;nan;95556.72;4982107;28;20258;-70
2023/01/05 07:44:12;;;;;;;61.35;37.28;;;;;;;14.78;nan;95557.41;4983709;28;20213;-72
2023/01/05 07:46:38;;;;;;;73.72;42.40;;;;;;;14.78;nan;95554.88;4982913;28;20274;-69
2023/01/05 07:49:05;;;;;;;74.45;39.53;;;;;;;14.94;nan;95557.59;4982899;28;20233;-70
2023/01/05 07:51:32;;;;;;;57.80;36.17;;;;;;;13.73;nan;95558.22;4983139;28;20264;-70
2023/01/05 07:54:00;;;;;;;49.05;31.75;;;;;;;13.55;nan;95558.03;4982969;28;20197;-71
2023/01/05 07:56:27;;;;;;;52.55;31.63;;;;;;;13.95;nan;95551.41;4982162;28;20678;-71
2023/01/05 07:58:54;;;;;;;46.47;29.02;;;;;;;14.51;nan;95545.78;4981408;28;20207;-70
2023/01/05 08:01:21;;;;;;;47.45;28.17;;;;;;;14.71;nan;95543.22;4981232;28;20756;-70
2023/01/05 08:03:47;;;;;;;43.83;27.25;;;;;;;15.08;nan;95542.50;4982531;28;20216;-71
2023/01/05 08:06:16;;;;;;;42.63;27.13;;;;;;;15.41;nan;95544.44;4982808;28;20208;-71
2023/01/05 08:08:43;;;;;;;42.55;25.92;;;;;;;15.85;nan;95545.84;4982076;28;20340;-69
2023/01/05 08:11:14;;;;;;;39.10;23.77;;;;;;;16.07;nan;95540.56;4981865;28;20769;-69
2023/01/05 08:16:22;;;;;;;40.28;23.55;;;;;;;15.78;nan;95525.72;4979988;28;20213;-70
2023/01/05 08:18:49;;;;;;;35.53;23.42;;;;;;;15.34;nan;95531.09;4981722;28;20646;-70
2023/01/05 08:21:15;;;;;;;39.95;23.63;;;;;;;15.50;nan;95537.19;4981969;28;20200;-70
2023/01/05 08:23:44;;;;;;;42.03;23.48;;;;;;;15.64;nan;95537.41;4982257;28;20216;-70
2023/01/05 08:26:14;;;;;;;39.65;26.13;;;;;;;15.71;nan;95543.09;4981734;28;20661;-69
2023/01/05 08:28:42;;;;;;;40.47;25.00;;;;;;;15.61;nan;95536.72;4982325;28;20527;-70
2023/01/05 08:31:12;;;;;;;40.45;23.98;;;;;;;15.26;nan;95535.72;4981929;28;20628;-70
2023/01/05 08:33:39;;;;;;;33.67;22.85;;;;;;;15.00;nan;95534.31;4982599;28;20263;-70
2023/01/05 08:36:09;;;;;;;40.08;24.80;;;;;;;14.76;nan;95536.19;4980704;28;20275;-70
2023/01/05 08:38:36;;;;;;;40.47;25.52;;;;;;;14.56;nan;95533.63;4982959;28;20584;-70
2023/01/05 08:41:02;;;;;;;39.03;23.50;;;;;;;14.35;nan;95529.38;4981976;28;20262;-70
2023/01/05 08:43:31;;;;;;;37.42;25.05;;;;;;;14.27;nan;95525.41;4985501;28;20208;-70
2023/01/05 08:45:57;;;;;;;37.35;24.40;;;;;;;14.38;nan;95526.66;4985941;28;20266;-70
2023/01/05 08:48:24;;;;;;;36.13;24.65;;;;;;;14.49;nan;95522.00;4985748;28;20234;-70
2023/01/05 08:50:51;;;;;;;36.50;23.77;;;;;;;14.58;nan;95516.50;4986323;28;20678;-71
2023/01/05 08:53:17;;;;;;;30.70;21.33;;;;;;;14.78;nan;95508.81;4986272;28;20220;-68
2023/01/05 08:55:44;;;;;;;30.85;20.90;;;;;;;15.10;nan;95511.69;4985961;28;20275;-70
2023/01/05 08:58:12;;;;;;;28.83;20.35;;;;;;;15.20;nan;95505.25;4985804;28;20204;-70
2023/01/05 09:00:40;;;;;;;35.40;21.58;;;;;;;15.34;nan;95508.06;4986059;28;20266;-71
2023/01/05 09:03:07;;;;;;;30.30;21.17;;;;;;;15.27;nan;95492.13;4986182;28;20224;-71
2023/01/05 09:05:33;;;;;;;30.27;22.20;;;;;;;15.20;nan;95489.91;4984480;28;20215;-70
2023/01/05 09:08:00;;;;;;;27.98;20.73;;;;;;;15.42;nan;95479.50;4984431;28;20299;-70
2023/01/05 09:10:27;;;;;;;26.98;19.45;;;;;;;15.48;nan;95469.81;4985589;28;20208;-70
2023/01/05 09:12:54;;;;;;;25.90;18.23;;;;;;;15.73;nan;95469.53;4985564;28;20271;-71
2023/01/05 09:15:21;;;;;;;29.02;18.77;;;;;;;15.84;nan;95458.78;4985447;28;20209;-70
2023/01/05 09:17:49;;;;;;;28.17;18.38;;;;;;;15.88;nan;95452.59;4985231;28;20212;-70
2023/01/05 09:20:15;;;;;;;26.45;18.05;;;;;;;15.67;nan;95441.66;4986005;28;20212;-71
2023/01/05 09:22:43;;;;;;;25.70;19.40;;;;;;;15.81;nan;95430.75;4986762;28;20266;-71
2023/01/05 09:25:10;;;;;;;33.22;21.83;;;;;;;15.55;nan;95425.09;4986495;28;20219;-69
2023/01/05 09:27:37;;;;;;;31.02;20.25;;;;;;;15.21;nan;95423.28;4984470;28;20230;-71
2023/01/05 09:30:04;;;;;;;24.88;19.92;;;;;;;15.39;nan;95423.31;4984454;28;20749;-70
2023/01/05 09:32:31;;;;;;;31.67;20.67;;;;;;;15.57;nan;95423.34;4986716;28;20710;-71
2023/01/05 09:34:59;;;;;;;34.72;21.13;;;;;;;15.90;nan;95420.88;4986215;28;20216;-71
2023/01/05 09:37:26;;;;;;;29.17;20.02;;;;;;;16.18;nan;95419.50;4985282;28;20590;-71
2023/01/05 09:39:53;;;;;;;32.92;21.35;;;;;;;16.33;nan;95403.38;4984656;28;20208;-70
2023/01/05 09:42:25;;;;;;;32.03;21.60;;;;;;;16.53;nan;95400.63;4985895;28;20209;-71
2023/01/05 09:44:55;;;;;;;32.30;21.70;;;;;;;16.52;nan;95388.69;4984727;28;20682;-70
2023/01/05 09:47:29;;;;;;;32.92;22.17;;;;;;;16.56;nan;95379.09;4985671;28;20248;-71
2023/01/05 09:49:59;;;;;;;34.97;21.27;;;;;;;16.39;nan;95374.00;4984186;28;20208;-71
2023/01/05 09:52:26;;;;;;;28.60;20.80;;;;;;;16.51;nan;95375.94;4986122;28;20220;-71
2023/01/05 09:54:53;;;;;;;29.83;19.23;;;;;;;16.52;nan;95381.00;4984075;28;20211;-70
2023/01/05 09:57:22;;;;;;;28.27;19.55;;;;;;;16.48;nan;95365.84;4984847;28;20216;-70
2023/01/05 09:59:51;;;;;;;27.08;17.98;;;;;;;16.47;nan;95362.44;4984654;28;20271;-70
2023/01/05 10:02:24;;;;;;;25.13;17.55;;;;;;;16.37;nan;95356.13;4985012;28;20216;-71
2023/01/05 10:04:52;;;;;;;26.73;19.10;;;;;;;15.99;nan;95352.94;4984464;28;20208;-70
2023/01/05 10:07:32;;;;;;;23.77;18.35;;;;;;;15.58;nan;95355.81;4984539;28;20297;-71
2023/01/05 10:10:01;;;;;;;26.45;18.20;;;;;;;15.66;nan;95358.00;4983650;28;20205;-71
2023/01/05 10:15:21;;;;;;;26.40;17.77;;;;;;;14.71;nan;95343.69;4984023;28;20267;-73
2023/01/05 10:17:48;;;;;;;27.08;16.77;;;;;;;14.70;nan;95351.41;4982954;28;20246;-71
2023/01/05 10:20:17;;;;;;;27.63;18.45;;;;;;;14.53;nan;95355.56;4984116;28;20224;-70
2023/01/05 10:22:57;;;;;;;30.70;18.60;;;;;;;14.71;nan;95342.84;4985086;28;20213;-71
2023/01/05 10:25:34;;;;;;;27.73;18.27;;;;;;;14.80;nan;95342.44;4984056;28;20590;-71
2023/01/05 10:28:17;;;;;;;25.38;18.58;;;;;;;14.54;nan;95330.81;4982982;28;20330;-71
2023/01/05 10:30:54;;;;;;;28.48;20.15;;;;;;;14.31;nan;95334.38;4983568;28;20256;-71
2023/01/05 10:33:32;;;;;;;28.58;19.83;;;;;;;13.92;nan;95335.16;4982283;28;20736;-69
2023/01/05 10:36:06;;;;;;;27.95;17.63;;;;;;;14.10;nan;95331.03;4980484;28;20597;-69
2023/01/05 10:38:49;;;;;;;22.67;16.83;;;;;;;14.27;nan;95323.44;4980816;28;20576;-71
2023/01/05 10:41:28;;;;;;;29.55;17.17;;;;;;;14.51;nan;95315.63;4983247;28;20259;-70
2023/01/05 10:44:29;;;;;;;24.40;17.40;;;;;;;14.75;nan;95306.81;4984628;28;20212;-69
2023/01/05 10:46:56;;;;;;;29.23;16.85;;;;;;;14.90;nan;95303.53;4981901;28;20211;-71
2023/01/05 10:49:28;;;;;;;24.75;18.02;;;;;;;15.04;nan;95291.84;4982936;28;20706;-72
2023/01/05 10:51:57;;;;;;;24.75;16.50;;;;;;;15.09;nan;95287.34;4984343;28;20277;-70
2023/01/05 10:54:36;;;;;;;19.42;15.07;;;;;;;15.31;nan;95280.28;4980874;28;20200;-69
2023/01/05 10:57:34;;;;;;;23.30;15.43;;;;;;;15.40;nan;95282.38;4979070;28;20877;-74
2023/01/05 11:00:04;;;;;;;24.92;15.32;;;;;;;15.35;nan;95283.50;4981241;28;20216;-71
2023/01/05 11:02:35;;;;;;;21.88;15.25;;;;;;;14.90;nan;95283.06;4978813;28;20713;-72
2023/01/05 11:05:06;;;;;;;26.02;16.60;;;;;;;14.46;nan;95274.06;4982528;28;20288;-73
2023/01/05 11:07:47;;;;;;;23.13;16.40;;;;;;;14.51;nan;95269.59;4980151;28;20213;-71
2023/01/05 11:10:29;;;;;;;22.65;16.05;;;;;;;14.26;nan;95257.03;4980956;28;20204;-72
2023/01/05 11:13:02;;;;;;;28.00;16.67;;;;;;;14.38;nan;95259.03;4979794;28;20384;-71
2023/01/05 11:15:31;;;;;;;25.08;16.63;;;;;;;14.45;nan;95262.19;4981199;28;20295;-73
2023/01/05 11:17:58;;;;;;;24.83;16.27;;;;;;;14.55;nan;95260.88;4981859;28;20247;-72
2023/01/05 11:20:27;;;;;;;22.85;15.90;;;;;;;14.77;nan;95266.66;4982408;28;20219;-70
2023/01/05 11:22:54;;;;;;;26.77;15.77;;;;;;;15.19;nan;95256.09;4982358;28;20204;-70
2023/01/05 11:25:27;;;;;;;16.50;11.00;;;;;;;15.46;nan;95253.91;4982223;28;20259;-70
2023/01/05 11:28:13;;;;;;;24.40;14.50;;;;;;;15.54;nan;95251.81;4982831;28;20208;-69
2023/01/05 11:30:54;;;;;;;27.83;11.50;;;;;;;15.84;nan;95240.94;4982514;28;20208;-70
2023/01/05 11:33:25;;;;;;;12.07;9.23;;;;;;;16.07;nan;95227.78;4981116;28;20208;-70
2023/01/05 11:35:52;;;;;;;6.85;6.20;;;;;;;16.10;nan;95231.91;4982681;28;20241;-70
2023/01/05 11:38:23;;;;;;;6.93;6.25;;;;;;;16.08;nan;95234.56;4981847;28;20220;-72
2023/01/05 11:40:52;;;;;;;7.10;5.50;;;;;;;16.15;nan;95241.00;4982049;28;20208;-70
2023/01/05 11:43:20;;;;;;;9.52;5.93;;;;;;;16.15;nan;95241.00;4982419;28;20263;-69
2023/01/05 11:45:50;;;;;;;6.88;6.20;;;;;;;16.05;nan;95237.28;4982854;28;20212;-71
2023/01/05 11:48:20;;;;;;;9.55;6.10;;;;;;;16.04;nan;95225.38;4982516;28;20208;-69
2023/01/05 11:50:49;;;;;;;7.53;6.93;;;;;;;16.20;nan;95225.38;4981810;28;20200;-68
2023/01/05 11:53:36;;;;;;;8.32;7.63;;;;;;;16.29;nan;95227.47;4981707;28;20224;-69
2023/01/05 11:56:14;;;;;;;8.00;7.28;;;;;;;16.44;nan;95220.69;4982776;28;20713;-71
2023/01/05 11:58:43;;;;;;;6.55;6.05;;;;;;;16.38;nan;95228.72;4982585;28;20208;-69
2023/01/05 12:01:44;;;;;;;6.95;5.65;;;;;;;16.58;nan;95231.03;4982586;28;20304;-70
2023/01/05 12:04:22;;;;;;;6.90;6.30;;;;;;;16.51;nan;95227.97;4982387;28;20210;-70
2023/01/05 12:07:05;;;;;;;7.40;6.80;;;;;;;16.27;nan;95230.13;4980522;28;20650;-72
2023/01/05 12:09:35;;;;;;;8.35;6.47;;;;;;;16.05;nan;95227.03;4982006;28;20295;-69
2023/01/05 12:12:37;;;;;;;7.95;6.65;;;;;;;16.01;nan;95224.72;4978940;28;20317;-70
2023/01/05 12:15:32;;;;;;;11.50;6.63;;;;;;;15.98;nan;95218.00;4982091;28;21340;-70
2023/01/05 12:18:14;;;;;;;13.27;6.05;;;;;;;15.81;nan;95218.06;4980449;28;20212;-71
2023/01/05 12:20:54;;;;;;;6.15;5.07;;;;;;;15.60;nan;95215.66;4981997;28;20306;-71
2023/01/05 12:23:35;;;;;;;6.70;6.10;;;;;;;15.29;nan;95212.97;4981085;28;20288;-68
2023/01/05 12:26:15;;;;;;;8.05;5.88;;;;;;;15.14;nan;95188.09;4983767;28;20215;-70
2023/01/05 12:29:09;;;;;;;6.38;5.88;;;;;;;15.07;nan;95171.41;4982663;28;20870;-68